πŸ“Š DonnΓ©es MΓ©tΓ©o - Bordeaux

Total mesures

14,375

TempΓ©rature moyenne

18.8Β°C

Temp. Min/Max

2.9Β° / 42.4Β°

HumiditΓ© moyenne

64.9%

Pression moyenne

1014.7 hPa
enregistrements
ID Date/Heure Temp (Β°C) HumiditΓ© (%) Pression (hPa) Tendance LuminositΓ© (lux) Situation
1875 22/02/2026 05:30 5.3 91.0 1,027.1 β†’ Stable 0 pluvieux-gris
1874 22/02/2026 05:15 5.5 91.0 1,027.1 β†’ Stable 0 pluvieux-gris
1873 22/02/2026 04:45 5.7 90.0 1,026.8 β†’ Stable 0 pluvieux-gris
1872 22/02/2026 04:30 5.8 89.0 1,026.8 β†’ Stable 0 pluvieux-gris
1871 22/02/2026 04:15 5.8 89.0 1,026.8 β†’ Stable 0 pluvieux-gris
1870 22/02/2026 03:45 5.7 90.0 1,027.0 β†’ Stable 0 pluvieux-gris
1869 22/02/2026 03:30 6.0 89.0 1,027.0 β†’ Stable 0 pluvieux-gris
1868 22/02/2026 03:15 6.1 89.0 1,027.0 β†’ Stable 0 pluvieux-gris
1867 22/02/2026 02:45 6.4 89.0 1,027.7 β†’ Stable 0 pluvieux-gris
1866 22/02/2026 02:30 6.6 90.0 1,027.7 β†’ Stable 0 pluvieux-gris
1865 22/02/2026 01:45 6.9 91.0 1,028.1 β†’ Stable 0 pluvieux-gris
1864 22/02/2026 01:30 6.8 90.0 1,028.1 β†’ Stable 0 pluvieux-gris
1863 22/02/2026 01:15 6.8 91.0 1,028.1 β†’ Stable 0 pluvieux-gris
1862 22/02/2026 01:00 6.9 91.0 1,028.2 β†’ Stable 0 pluvieux-gris
1861 22/02/2026 00:45 7.1 91.0 1,028.6 β†’ Stable 0 pluvieux-gris
1860 22/02/2026 00:30 7.5 90.0 1,028.6 β†’ Stable 0 pluvieux-gris
1859 22/02/2026 00:15 7.5 90.0 1,028.6 β†’ Stable 0 pluvieux-gris
1858 21/02/2026 23:45 7.7 89.0 1,028.9 β†’ Stable 0 pluvieux-gris
1857 21/02/2026 23:30 7.7 86.0 1,028.9 β†’ Stable 0 pluvieux-gris
1856 21/02/2026 23:15 7.8 86.0 1,028.9 β†’ Stable 0 pluvieux-gris
1855 21/02/2026 22:45 8.0 86.0 1,029.1 β†’ Stable 0 pluvieux-gris
1854 21/02/2026 22:30 9.1 88.0 1,029.1 β†’ Stable 0 pluvieux-gris
1853 21/02/2026 22:15 9.2 88.0 1,029.1 β†’ Stable 0 pluvieux-gris
1852 21/02/2026 21:45 9.8 87.0 1,029.1 β†’ Stable 0 pluvieux-gris
1851 21/02/2026 21:30 9.8 86.0 1,029.1 β†’ Stable 0 pluvieux-gris
1850 21/02/2026 21:15 9.9 86.0 1,029.1 β†’ Stable 0 pluvieux-gris
1849 21/02/2026 20:45 10.7 84.0 1,029.1 β†’ Stable 0 pluvieux-gris
1848 21/02/2026 20:15 10.8 82.0 1,029.1 β†’ Stable 0 pluvieux-gris
1847 21/02/2026 19:45 11.2 81.0 1,029.1 β†’ Stable 0 pluvieux-gris
1846 21/02/2026 19:30 11.5 75.0 1,029.1 β†’ Stable 0 pluvieux-gris
1845 21/02/2026 19:15 12.0 72.0 1,029.1 β†’ Stable 0 pluvieux-gris
1844 21/02/2026 18:45 12.5 69.0 1,028.8 β†’ Stable 0 frais-stable
1843 21/02/2026 18:15 12.7 68.0 1,028.8 β†’ Stable 0 frais-stable
1842 21/02/2026 18:00 12.9 68.0 1,028.8 β†’ Stable 0 frais-stable
1841 21/02/2026 17:45 13.1 67.0 1,028.0 β†’ Stable 0 frais-stable
1840 21/02/2026 17:30 13.4 70.0 1,028.0 β†’ Stable 2,868 pluvieux-gris
1839 21/02/2026 17:15 13.7 71.0 1,028.0 β†’ Stable 6,948 pluvieux-gris
1838 21/02/2026 16:45 14.1 67.0 1,027.9 β†’ Stable 15,096 frais-stable
1837 21/02/2026 16:15 14.7 62.0 1,027.9 β†’ Stable 23,700 frais-stable
1836 21/02/2026 15:45 14.9 62.0 1,028.4 β†’ Stable 31,200 frais-stable
1835 21/02/2026 15:30 14.8 64.0 1,028.4 β†’ Stable 33,612 frais-stable
1834 21/02/2026 15:15 14.7 64.0 1,028.4 β†’ Stable 34,728 frais-stable
1833 21/02/2026 14:45 14.5 67.0 1,028.6 β†’ Stable 38,244 frais-stable
1832 21/02/2026 14:30 14.5 68.0 1,028.6 β†’ Stable 36,672 frais-stable
1831 21/02/2026 14:15 14.4 68.0 1,028.6 β†’ Stable 40,092 frais-stable
1830 21/02/2026 14:00 14.3 69.0 1,028.6 β†’ Stable 42,876 frais-stable
1829 21/02/2026 13:45 14.0 70.0 1,029.6 β†’ Stable 44,352 pluvieux-gris
1828 21/02/2026 13:30 14.4 68.0 1,029.6 β†’ Stable 47,496 frais-stable
1827 21/02/2026 13:15 14.2 69.0 1,029.7 β†’ Stable 44,352 frais-stable
1826 21/02/2026 13:00 14.2 68.0 1,029.7 β†’ Stable 42,132 frais-stable
1825 21/02/2026 12:45 14.2 67.0 1,030.6 β†’ Stable 42,588 frais-stable
1824 21/02/2026 12:15 13.8 70.0 1,030.6 β†’ Stable 47,412 pluvieux-gris
1823 21/02/2026 12:00 13.7 72.0 1,030.6 β†’ Stable 50,652 pluvieux-gris
1822 21/02/2026 11:45 13.6 74.0 1,031.0 β†’ Stable 50,088 pluvieux-gris
1821 21/02/2026 11:30 13.6 75.0 1,031.0 β†’ Stable 42,036 pluvieux-gris
1820 21/02/2026 11:15 13.3 78.0 1,031.0 β†’ Stable 36,480 pluvieux-gris
1819 21/02/2026 10:45 12.8 81.0 1,031.6 β†’ Stable 31,296 pluvieux-gris
1818 21/02/2026 10:30 12.9 82.0 1,031.6 β†’ Stable 40,644 pluvieux-gris
1817 21/02/2026 10:15 12.7 83.0 1,031.6 β†’ Stable 35,832 pluvieux-gris
1816 21/02/2026 09:45 12.1 86.0 1,031.4 β†’ Stable 30,000 pluvieux-gris
1815 21/02/2026 09:30 11.6 87.0 1,031.4 β†’ Stable 19,080 pluvieux-gris
1814 21/02/2026 09:15 11.1 89.0 1,031.4 β†’ Stable 13,608 pluvieux-gris
1813 21/02/2026 08:45 10.5 92.0 1,031.2 β†’ Stable 8,796 pluvieux-gris
1812 21/02/2026 08:30 9.9 93.0 1,031.2 β†’ Stable 11,664 pluvieux-gris
1811 21/02/2026 08:15 9.7 94.0 1,031.2 β†’ Stable 10,368 pluvieux-gris
1810 21/02/2026 07:45 9.3 94.0 1,030.3 β†’ Stable 6,300 pluvieux-gris
1809 21/02/2026 07:30 9.7 93.0 1,030.3 β†’ Stable 1,392 pluvieux-gris
1808 21/02/2026 07:15 9.6 93.0 1,030.3 β†’ Stable 552 pluvieux-gris
1807 21/02/2026 06:45 9.5 93.0 1,030.0 β†’ Stable 0 pluvieux-gris
1806 21/02/2026 06:30 9.6 95.0 1,030.0 β†’ Stable 0 pluvieux-gris
1805 21/02/2026 06:15 9.5 95.0 1,030.0 β†’ Stable 0 pluvieux-gris
1804 21/02/2026 06:00 9.4 95.0 1,030.0 β†’ Stable 0 pluvieux-gris
1803 21/02/2026 05:45 9.3 95.0 1,030.1 β†’ Stable 0 pluvieux-gris
1802 21/02/2026 05:15 9.7 95.0 1,030.1 β†’ Stable 0 pluvieux-gris
1801 21/02/2026 04:45 9.7 94.0 1,029.2 β†’ Stable 0 pluvieux-gris
1800 21/02/2026 04:30 9.9 94.0 1,029.2 β†’ Stable 0 pluvieux-gris
1799 21/02/2026 04:15 9.8 94.0 1,029.2 β†’ Stable 0 pluvieux-gris
1798 21/02/2026 03:45 9.8 94.0 1,028.8 β†’ Stable 0 pluvieux-gris
1797 21/02/2026 03:15 9.2 94.0 1,028.8 β†’ Stable 0 pluvieux-gris
1796 21/02/2026 03:00 9.5 93.0 1,028.8 β†’ Stable 0 pluvieux-gris
1795 21/02/2026 02:45 9.6 92.0 1,029.3 β†’ Stable 0 pluvieux-gris
1794 21/02/2026 02:15 9.6 92.0 1,029.3 β†’ Stable 0 pluvieux-gris
1793 21/02/2026 02:00 9.6 92.0 1,029.3 β†’ Stable 0 pluvieux-gris
1792 21/02/2026 01:45 9.5 92.0 1,029.2 β†’ Stable 0 pluvieux-gris
1791 21/02/2026 01:30 8.8 92.0 1,029.2 β†’ Stable 0 pluvieux-gris
1790 21/02/2026 01:15 9.1 92.0 1,029.3 β†’ Stable 0 pluvieux-gris
1789 21/02/2026 01:00 9.4 91.0 1,029.3 β†’ Stable 0 pluvieux-gris
1788 21/02/2026 00:45 9.5 90.0 1,029.4 β†’ Stable 0 pluvieux-gris
1787 21/02/2026 00:30 9.2 90.0 1,029.4 β†’ Stable 0 pluvieux-gris
1786 21/02/2026 00:15 9.4 89.0 1,029.4 β†’ Stable 0 pluvieux-gris
1785 21/02/2026 00:00 9.4 89.0 1,029.4 β†’ Stable 0 pluvieux-gris
1784 20/02/2026 23:45 9.4 89.0 1,029.1 β†’ Stable 0 pluvieux-gris
1783 20/02/2026 23:15 10.1 89.0 1,029.1 β†’ Stable 0 pluvieux-gris
1782 20/02/2026 23:00 10.1 89.0 1,029.2 β†’ Stable 0 pluvieux-gris
1781 20/02/2026 22:45 10.0 89.0 1,029.1 β†’ Stable 0 pluvieux-gris
1780 20/02/2026 22:30 10.2 88.0 1,029.1 β†’ Stable 0 pluvieux-gris
1779 20/02/2026 22:15 10.1 88.0 1,029.1 β†’ Stable 0 pluvieux-gris
1778 20/02/2026 22:00 10.1 88.0 1,029.1 β†’ Stable 0 pluvieux-gris
1777 20/02/2026 21:45 10.0 88.0 1,028.8 β†’ Stable 0 pluvieux-gris
1776 20/02/2026 21:30 10.5 86.0 1,028.8 β†’ Stable 0 pluvieux-gris